Time;durP1;ratioP1;P1;durP2;ratioP2;P2;SDS_P1;SDS_P2;PMS_P1;PMS_P2;Temp;Humidity;BMP_temperature;BMP_pressure;BME280_temperature;BME280_humidity;BME280_pressure;Samples;Min_cycle;Max_cycle;Signal;HPM_P1;HPM_P2
2022/05/08 00:01:26;;;;;;;;;;;;;;;8.47;81.94;100890.42;1642918;87;20129;-71
2022/05/08 00:03:53;;;;;;;;;;;;;;;8.43;81.99;100892.54;1642766;87;20119;-71
2022/05/08 00:06:20;;;;;;;;;;;;;;;8.38;82.08;100889.36;1643033;87;20139;-73
2022/05/08 00:08:48;;;;;;;;;;;;;;;8.34;82.83;100891.98;1638015;87;20116;-72
2022/05/08 00:11:17;;;;;;;;;;;;;;;8.29;82.77;100899.11;1643195;87;20146;-71
2022/05/08 00:13:45;;;;;;;;;;;;;;;8.26;83.48;100899.38;1643724;87;20108;-70
2022/05/08 00:16:12;;;;;;;;;;;;;;;8.22;83.46;100889.86;1638193;87;20120;-71
2022/05/08 00:18:40;;;;;;;;;;;;;;;8.19;83.89;100892.82;1642645;87;20116;-71
2022/05/08 00:21:07;;;;;;;;;;;;;;;8.16;85.05;100893.95;1642970;87;20127;-70
2022/05/08 00:23:35;;;;;;;;;;;;;;;8.13;85.60;100895.56;1642649;87;20120;-71
2022/05/08 00:26:02;;;;;;;;;;;;;;;8.11;85.76;100892.62;1642542;87;20108;-72
2022/05/08 00:28:29;;;;;;;;;;;;;;;8.09;86.02;100898.17;1642561;87;20112;-72
2022/05/08 00:30:56;;;;;;;;;;;;;;;8.05;86.68;100891.33;1642736;87;20111;-71
2022/05/08 00:33:23;;;;;;;;;;;;;;;8.02;87.20;100890.74;1631114;87;20120;-70
2022/05/08 00:35:49;;;;;;;;;;;;;;;7.96;87.98;100891.63;1634339;87;20142;-71
2022/05/08 00:38:16;;;;;;;;;;;;;;;7.91;88.78;100890.33;1635210;88;20141;-71
2022/05/08 00:40:43;;;;;;;;;;;;;;;7.85;89.50;100889.53;1644667;87;20130;-71
2022/05/08 00:43:35;;;;;;;;;;;;;;;7.78;90.22;100889.20;1644746;87;20105;-70
2022/05/08 00:46:07;;;;;;;;;;;;;;;7.71;91.20;100885.33;1590084;89;20118;-71
2022/05/08 00:48:34;;;;;;;;;;;;;;;7.62;92.42;100884.28;1549198;92;20421;-71
2022/05/08 00:51:04;;;;;;;;;;;;;;;7.55;93.56;100885.80;1548128;93;20113;-71
2022/05/08 00:53:44;;;;;;;;;;;;;;;7.50;94.83;100886.67;1570963;91;20483;-71
2022/05/08 00:56:12;;;;;;;;;;;;;;;7.45;95.99;100884.86;1571355;91;20525;-71
2022/05/08 00:58:40;;;;;;;;;;;;;;;7.38;96.31;100875.98;1571094;91;20151;-72
2022/05/08 01:01:08;;;;;;;;;;;;;;;7.34;97.04;100881.23;1571390;91;20447;-71
2022/05/08 01:03:36;;;;;;;;;;;;;;;7.30;98.32;100882.48;1570528;91;20184;-71
2022/05/08 01:06:04;;;;;;;;;;;;;;;7.25;99.53;100869.91;1571158;91;20210;-71
2022/05/08 01:08:32;;;;;;;;;;;;;;;7.21;100.00;100866.63;1571001;91;20168;-72
2022/05/08 01:11:03;;;;;;;;;;;;;;;7.18;100.00;100870.91;1571343;91;20443;-72
2022/05/08 01:13:30;;;;;;;;;;;;;;;7.17;100.00;100864.31;1570928;91;20443;-71
2022/05/08 01:15:57;;;;;;;;;;;;;;;7.15;100.00;100868.97;1571214;91;20208;-71
2022/05/08 01:18:24;;;;;;;;;;;;;;;7.11;100.00;100860.31;1571035;91;20155;-70
2022/05/08 01:20:51;;;;;;;;;;;;;;;7.08;100.00;100871.31;1571180;91;20478;-70
2022/05/08 01:23:21;;;;;;;;;;;;;;;7.05;100.00;100866.22;1571143;91;20161;-70
2022/05/08 01:25:51;;;;;;;;;;;;;;;7.03;100.00;100862.30;1571266;91;20151;-71
2022/05/08 01:28:19;;;;;;;;;;;;;;;7.02;100.00;100863.27;1497448;96;20125;-71
2022/05/08 01:30:47;;;;;;;;;;;;;;;7.03;100.00;100866.84;1497759;96;20121;-70
2022/05/08 01:33:14;;;;;;;;;;;;;;;7.03;100.00;100862.30;1493653;95;20120;-71
2022/05/08 01:38:11;;;;;;;;;;;;;;;7.00;100.00;100858.52;1497008;96;20151;-71
2022/05/08 01:40:37;;;;;;;;;;;;;;;6.98;100.00;100857.80;1496934;96;20161;-72
2022/05/08 01:43:05;;;;;;;;;;;;;;;6.94;100.00;100853.67;1469328;96;20170;-72
2022/05/08 01:45:34;;;;;;;;;;;;;;;6.90;100.00;100861.61;1494694;96;20126;-71
2022/05/08 01:50:46;;;;;;;;;;;;;;;6.87;100.00;100859.66;1514193;95;20147;-71
2022/05/08 01:53:13;;;;;;;;;;;;;;;6.85;100.00;100851.72;1493580;96;20120;-71
2022/05/08 01:55:39;;;;;;;;;;;;;;;6.84;100.00;100854.06;1496085;93;20181;-71
2022/05/08 01:58:06;;;;;;;;;;;;;;;6.85;100.00;100858.44;1540187;93;20400;-72
2022/05/08 02:00:33;;;;;;;;;;;;;;;6.83;100.00;100851.88;1540508;93;20115;-72
2022/05/08 02:03:00;;;;;;;;;;;;;;;6.81;100.00;100851.62;1541469;93;20115;-72
2022/05/08 02:05:31;;;;;;;;;;;;;;;6.79;100.00;100853.59;1540218;93;20459;-70
2022/05/08 02:07:57;;;;;;;;;;;;;;;6.76;100.00;100853.33;1540131;93;20134;-72
2022/05/08 02:10:25;;;;;;;;;;;;;;;6.74;100.00;100862.52;1539870;93;20152;-71
2022/05/08 02:12:51;;;;;;;;;;;;;;;6.71;100.00;100851.54;1540143;93;20119;-72
2022/05/08 02:15:20;;;;;;;;;;;;;;;6.70;100.00;100854.35;1540165;91;20444;-71
2022/05/08 02:17:47;;;;;;;;;;;;;;;6.68;100.00;100860.34;1540184;93;20171;-71
2022/05/08 02:20:14;;;;;;;;;;;;;;;6.64;100.00;100855.22;1539958;93;20144;-72
2022/05/08 02:22:42;;;;;;;;;;;;;;;6.61;100.00;100856.80;1540179;93;20149;-72
2022/05/08 02:25:09;;;;;;;;;;;;;;;6.58;100.00;100862.42;1551444;92;20447;-71
2022/05/08 02:27:38;;;;;;;;;;;;;;;6.55;100.00;100855.09;1558743;92;20172;-70
2022/05/08 02:30:07;;;;;;;;;;;;;;;6.52;100.00;100864.28;1542673;93;20419;-71
2022/05/08 02:32:36;;;;;;;;;;;;;;;6.49;100.00;100866.36;1562782;90;20195;-70
2022/05/08 02:35:04;;;;;;;;;;;;;;;6.46;100.00;100872.81;1596293;88;20401;-72
2022/05/08 02:37:31;;;;;;;;;;;;;;;6.43;100.00;100865.03;1634505;88;20143;-72
2022/05/08 02:39:57;;;;;;;;;;;;;;;6.41;100.00;100869.64;1634281;88;20128;-72
2022/05/08 02:42:25;;;;;;;;;;;;;;;6.38;100.00;100865.89;1662440;86;20465;-71
2022/05/08 02:44:52;;;;;;;;;;;;;;;6.38;100.00;100865.39;1634475;88;20120;-71
2022/05/08 02:47:19;;;;;;;;;;;;;;;6.37;100.00;100866.85;1634343;88;20116;-71
2022/05/08 02:49:47;;;;;;;;;;;;;;;6.37;100.00;100869.04;1634277;88;20448;-72
2022/05/08 02:52:14;;;;;;;;;;;;;;;6.38;100.00;100872.60;1634500;88;20433;-71
2022/05/08 02:54:41;;;;;;;;;;;;;;;6.39;100.00;100875.64;1634562;88;20108;-71
2022/05/08 02:59:53;;;;;;;;;;;;;;;6.40;100.00;100878.70;1634611;88;20404;-72
2022/05/08 03:02:20;;;;;;;;;;;;;;;6.40;100.00;100880.89;1634660;88;20116;-72
2022/05/08 03:04:47;;;;;;;;;;;;;;;6.40;100.00;100889.45;1634455;88;20120;-71
2022/05/08 03:07:14;;;;;;;;;;;;;;;6.41;100.00;100885.30;1634583;88;20116;-71
2022/05/08 03:09:41;;;;;;;;;;;;;;;6.44;100.00;100889.55;1634418;88;20417;-71
2022/05/08 03:12:09;;;;;;;;;;;;;;;6.46;100.00;100887.13;1634736;88;20116;-71
2022/05/08 03:14:38;;;;;;;;;;;;;;;6.49;100.00;100891.88;1634587;88;20145;-72
2022/05/08 03:17:05;;;;;;;;;;;;;;;6.51;100.00;100888.08;1635883;88;20139;-71
2022/05/08 03:19:32;;;;;;;;;;;;;;;6.54;100.00;100883.81;1662657;86;20114;-71
2022/05/08 03:22:00;;;;;;;;;;;;;;;6.58;100.00;100885.27;1624700;88;20116;-71
2022/05/08 03:24:29;;;;;;;;;;;;;;;6.64;100.00;100887.47;1624970;88;20127;-71
2022/05/08 03:26:59;;;;;;;;;;;;;;;6.69;100.00;100886.22;1624987;88;20376;-71
2022/05/08 03:29:26;;;;;;;;;;;;;;;6.73;100.00;100887.20;1624402;88;20108;-71
2022/05/08 03:31:53;;;;;;;;;;;;;;;6.78;100.00;100886.34;1624632;88;20116;-72
2022/05/08 03:34:21;;;;;;;;;;;;;;;6.90;100.00;100889.83;1624320;88;20107;-72
2022/05/08 03:36:48;;;;;;;;;;;;;;;7.06;100.00;100888.58;1642382;87;20100;-71
2022/05/08 03:39:15;;;;;;;;;;;;;;;7.16;100.00;100893.05;1663953;86;20122;-71
2022/05/08 03:41:43;;;;;;;;;;;;;;;7.25;100.00;100891.94;1641095;86;20181;-71
2022/05/08 03:44:09;;;;;;;;;;;;;;;7.29;100.00;100900.94;1664001;86;20129;-71
2022/05/08 03:46:37;;;;;;;;;;;;;;;7.30;100.00;100895.94;1664135;86;20446;-72
2022/05/08 03:49:04;;;;;;;;;;;;;;;7.34;100.00;100901.41;1662777;86;20144;-70
2022/05/08 03:51:30;;;;;;;;;;;;;;;7.37;100.00;100902.52;1663209;86;20117;-72
2022/05/08 03:53:57;;;;;;;;;;;;;;;7.41;100.00;100901.26;1663462;86;20132;-70
2022/05/08 03:56:27;;;;;;;;;;;;;;;7.46;100.00;100905.42;1662872;86;20122;-70
2022/05/08 03:58:54;;;;;;;;;;;;;;;7.51;100.00;100906.73;1662462;86;20118;-71
2022/05/08 04:01:22;;;;;;;;;;;;;;;7.57;100.00;100912.08;1662804;86;20106;-71
2022/05/08 04:03:48;;;;;;;;;;;;;;;7.67;100.00;100909.47;1662851;86;20430;-72
2022/05/08 04:06:15;;;;;;;;;;;;;;;7.76;100.00;100912.72;1662757;86;20130;-71
2022/05/08 04:08:42;;;;;;;;;;;;;;;7.86;100.00;100912.77;1662870;86;20430;-71
2022/05/08 04:11:09;;;;;;;;;;;;;;;8.01;100.00;100924.07;1662641;86;20105;-71
2022/05/08 04:13:36;;;;;;;;;;;;;;;8.13;100.00;100913.58;1662448;86;20411;-70
2022/05/08 04:16:21;;;;;;;;;;;;;;;8.28;100.00;100918.95;1662700;86;20106;-70
2022/05/08 04:18:47;;;;;;;;;;;;;;;8.43;100.00;100907.83;1662596;86;20137;-71
2022/05/08 04:21:14;;;;;;;;;;;;;;;8.61;100.00;100908.06;1662770;86;20118;-70
2022/05/08 04:26:29;;;;;;;;;;;;;;;8.91;100.00;100909.34;1662655;86;20150;-72
2022/05/08 04:28:59;;;;;;;;;;;;;;;9.12;100.00;100915.97;1662449;86;20403;-72
2022/05/08 04:31:27;;;;;;;;;;;;;;;9.31;100.00;100918.32;1662739;86;20418;-72
2022/05/08 04:33:54;;;;;;;;;;;;;;;9.53;100.00;100916.36;1657118;86;20138;-71
2022/05/08 04:36:21;;;;;;;;;;;;;;;9.78;100.00;100917.61;1648056;87;20112;-71
2022/05/08 04:38:48;;;;;;;;;;;;;;;10.07;100.00;100918.87;1648221;87;20421;-72
2022/05/08 04:41:15;;;;;;;;;;;;;;;10.36;100.00;100919.34;1648255;87;20115;-71
2022/05/08 04:43:43;;;;;;;;;;;;;;;10.67;100.00;100921.75;1648334;87;20411;-74
2022/05/08 04:46:11;;;;;;;;;;;;;;;10.94;100.00;100917.69;1648151;87;20119;-74
2022/05/08 04:48:39;;;;;;;;;;;;;;;11.18;100.00;100925.20;1641748;87;20111;-71
2022/05/08 04:51:06;;;;;;;;;;;;;;;11.44;100.00;100927.16;1681350;84;20135;-73
2022/05/08 04:53:32;;;;;;;;;;;;;;;11.69;100.00;100929.58;1682011;85;20116;-74
2022/05/08 04:56:00;;;;;;;;;;;;;;;11.91;100.00;100933.66;1681656;85;20112;-71
2022/05/08 04:58:29;;;;;;;;;;;;;;;12.14;100.00;100931.80;1681882;85;20119;-70
2022/05/08 05:00:58;;;;;;;;;;;;;;;12.35;100.00;100931.41;1681426;85;20111;-71
2022/05/08 05:03:25;;;;;;;;;;;;;;;12.54;100.00;100931.69;1682060;85;20139;-72
2022/05/08 05:05:52;;;;;;;;;;;;;;;12.77;100.00;100929.25;1681573;85;20124;-70
2022/05/08 05:08:20;;;;;;;;;;;;;;;13.01;100.00;100930.33;1681656;85;20104;-71
2022/05/08 05:10:48;;;;;;;;;;;;;;;13.24;100.00;100923.28;1681409;85;20115;-72
2022/05/08 05:13:15;;;;;;;;;;;;;;;13.49;99.98;100921.95;1681949;84;20393;-72
2022/05/08 05:15:42;;;;;;;;;;;;;;;13.75;97.98;100923.67;1681317;84;20132;-72
2022/05/08 05:18:09;;;;;;;;;;;;;;;13.97;95.14;100920.27;1681547;85;20121;-74
2022/05/08 05:20:36;;;;;;;;;;;;;;;14.16;91.73;100922.27;1681814;85;20116;-74
2022/05/08 05:23:03;;;;;;;;;;;;;;;14.35;91.17;100915.08;1681459;85;20137;-72
2022/05/08 05:25:30;;;;;;;;;;;;;;;14.54;86.82;100920.64;1681748;84;20119;-73
2022/05/08 05:27:57;;;;;;;;;;;;;;;14.68;83.87;100923.17;1681542;85;20127;-72
2022/05/08 05:30:24;;;;;;;;;;;;;;;14.81;81.85;100929.41;1681667;85;20120;-73
2022/05/08 05:32:50;;;;;;;;;;;;;;;14.90;79.71;100927.50;1681733;85;20115;-71
2022/05/08 05:35:18;;;;;;;;;;;;;;;15.04;79.96;100923.17;1666253;85;20441;-74
2022/05/08 05:37:46;;;;;;;;;;;;;;;15.19;79.74;100924.09;1659245;86;20141;-72
2022/05/08 05:40:13;;;;;;;;;;;;;;;15.34;80.54;100922.29;1659103;86;20158;-73
2022/05/08 05:42:40;;;;;;;;;;;;;;;15.54;77.68;100917.72;1659383;86;20129;-71
2022/05/08 05:45:08;;;;;;;;;;;;;;;15.72;76.02;100923.72;1659441;86;20184;-72
2022/05/08 05:47:52;;;;;;;;;;;;;;;15.90;73.93;100922.05;1659153;87;20137;-72
2022/05/08 05:50:21;;;;;;;;;;;;;;;15.98;73.00;100926.58;1659174;86;20193;-70
2022/05/08 05:52:50;;;;;;;;;;;;;;;16.10;72.88;100922.37;1658961;87;20142;-71
2022/05/08 05:55:17;;;;;;;;;;;;;;;16.26;72.46;100917.26;1642399;87;20126;-70
2022/05/08 05:57:43;;;;;;;;;;;;;;;16.48;70.41;100920.95;1659239;86;20607;-71
2022/05/08 06:00:18;;;;;;;;;;;;;;;16.68;70.07;100921.22;1642298;87;20166;-71
2022/05/08 06:02:45;;;;;;;;;;;;;;;16.87;66.02;100910.75;1659287;86;20137;-71
2022/05/08 06:05:14;;;;;;;;;;;;;;;17.08;64.82;100913.52;1615756;89;20150;-71
2022/05/08 06:07:42;;;;;;;;;;;;;;;17.35;65.98;100918.44;1670943;86;20137;-71
2022/05/08 06:10:10;;;;;;;;;;;;;;;17.65;66.26;100917.29;1671247;86;20145;-71
2022/05/08 06:12:38;;;;;;;;;;;;;;;17.98;65.07;100911.80;1670851;86;20141;-71
2022/05/08 06:15:08;;;;;;;;;;;;;;;18.27;64.36;100913.47;1671265;86;20156;-70
2022/05/08 06:17:34;;;;;;;;;;;;;;;18.57;64.27;100905.88;1671255;86;20449;-71
2022/05/08 06:20:01;;;;;;;;;;;;;;;18.90;62.55;100905.20;1670872;86;20292;-71
2022/05/08 06:22:28;;;;;;;;;;;;;;;19.12;59.53;100908.66;1671375;86;20500;-69
2022/05/08 06:24:55;;;;;;;;;;;;;;;19.28;55.85;100903.83;1671265;86;20145;-69
2022/05/08 06:27:24;;;;;;;;;;;;;;;19.29;50.36;100911.02;1670881;86;20140;-71
2022/05/08 06:29:51;;;;;;;;;;;;;;;19.20;48.69;100903.50;1670969;86;20433;-70
2022/05/08 06:32:18;;;;;;;;;;;;;;;19.08;46.26;100909.27;1671137;86;20150;-71
2022/05/08 06:34:47;;;;;;;;;;;;;;;19.13;47.25;100906.22;1669820;85;20107;-71
2022/05/08 06:37:15;;;;;;;;;;;;;;;19.37;47.02;100903.11;1671110;85;20111;-70
2022/05/08 06:39:41;;;;;;;;;;;;;;;19.65;44.92;100901.56;1671306;85;20104;-71
2022/05/08 06:42:08;;;;;;;;;;;;;;;19.83;43.43;100907.31;1671144;85;20095;-71
2022/05/08 06:44:37;;;;;;;;;;;;;;;19.93;43.03;100902.77;1667891;86;20411;-71
2022/05/08 06:47:04;;;;;;;;;;;;;;;20.10;42.79;100899.06;1670785;85;20166;-72
2022/05/08 06:49:31;;;;;;;;;;;;;;;20.26;41.54;100898.61;1671141;85;20167;-70
2022/05/08 06:51:58;;;;;;;;;;;;;;;20.40;40.07;100893.94;1670895;85;20119;-71
2022/05/08 06:54:26;;;;;;;;;;;;;;;20.57;39.01;100908.02;1671175;85;20150;-73
2022/05/08 06:56:53;;;;;;;;;;;;;;;20.67;35.51;100893.88;1670759;86;20100;-69
2022/05/08 07:02:05;;;;;;;;;;;;;;;20.62;32.70;100898.64;1670967;86;20134;-71
2022/05/08 07:04:33;;;;;;;;;;;;;;;20.60;33.20;100893.03;1671447;86;20409;-71
2022/05/08 07:07:00;;;;;;;;;;;;;;;20.76;33.66;100898.06;1671175;85;20131;-71
2022/05/08 07:09:28;;;;;;;;;;;;;;;20.82;32.11;100894.46;1670927;85;20138;-70
2022/05/08 07:11:54;;;;;;;;;;;;;;;20.81;32.10;100905.67;1671030;86;20136;-70
2022/05/08 07:14:22;;;;;;;;;;;;;;;20.82;32.66;100893.09;1670936;85;20160;-73
2022/05/08 07:16:49;;;;;;;;;;;;;;;20.92;33.45;100893.98;1670899;86;20115;-69
2022/05/08 07:19:16;;;;;;;;;;;;;;;21.09;34.24;100887.45;1671088;85;20115;-72
2022/05/08 07:21:44;;;;;;;;;;;;;;;21.37;33.56;100884.83;1671139;85;20132;-72
2022/05/08 07:24:11;;;;;;;;;;;;;;;21.63;33.36;100887.13;1670918;85;20116;-71
2022/05/08 07:26:38;;;;;;;;;;;;;;;21.79;32.82;100881.05;1671253;85;20143;-71
2022/05/08 07:29:06;;;;;;;;;;;;;;;21.79;32.68;100883.80;1671242;85;20146;-73
2022/05/08 07:31:33;;;;;;;;;;;;;;;21.74;32.67;100882.26;1670953;86;20167;-71
2022/05/08 07:36:46;;;;;;;;;;;;;;;21.95;33.37;100879.10;1662532;86;20129;-72
2022/05/08 07:39:13;;;;;;;;;;;;;;;22.16;33.98;100885.27;1662573;86;20129;-71
2022/05/08 07:41:42;;;;;;;;;;;;;;;22.44;32.62;100878.45;1662329;86;20227;-72
2022/05/08 07:44:09;;;;;;;;;;;;;;;22.63;32.46;100870.99;1662616;86;20170;-72
2022/05/08 07:46:35;;;;;;;;;;;;;;;22.84;32.11;100871.05;1662734;86;20126;-72
2022/05/08 07:49:03;;;;;;;;;;;;;;;22.99;30.82;100874.25;1663892;86;20153;-71
2022/05/08 07:51:30;;;;;;;;;;;;;;;22.95;30.20;100874.42;1663754;86;20149;-71
2022/05/08 07:53:58;;;;;;;;;;;;;;;22.65;29.14;100871.63;1664017;86;20414;-71
2022/05/08 07:56:25;;;;;;;;;;;;;;;22.37;30.22;100862.81;1663784;86;20168;-69
2022/05/08 07:58:52;;;;;;;;;;;;;;;22.45;30.71;100860.83;1663668;86;20129;-72
2022/05/08 08:01:18;;;;;;;;;;;;;;;22.64;31.65;100854.23;1664101;86;20466;-70
2022/05/08 08:03:47;;;;;;;;;;;;;;;22.81;29.64;100857.75;1664223;86;20149;-70
2022/05/08 08:06:14;;;;;;;;;;;;;;;22.79;28.97;100864.88;1663964;86;20458;-71
2022/05/08 08:08:41;;;;;;;;;;;;;;;22.54;28.83;100863.57;1663971;86;20196;-71
2022/05/08 08:11:08;;;;;;;;;;;;;;;22.42;29.65;100858.55;1664028;86;20173;-70
2022/05/08 08:13:35;;;;;;;;;;;;;;;22.45;29.03;100859.45;1664081;86;20406;-71
2022/05/08 08:16:06;;;;;;;;;;;;;;;22.51;29.82;100858.55;1663887;86;20442;-71
2022/05/08 08:18:33;;;;;;;;;;;;;;;22.74;29.98;100851.77;1664049;86;20133;-72
2022/05/08 08:21:00;;;;;;;;;;;;;;;23.05;30.08;100852.64;1663677;86;20141;-71
2022/05/08 08:23:27;;;;;;;;;;;;;;;23.27;28.89;100855.73;1664048;86;20177;-71
2022/05/08 08:25:55;;;;;;;;;;;;;;;23.13;28.07;100848.73;1664076;86;20137;-70
2022/05/08 08:28:22;;;;;;;;;;;;;;;23.00;28.47;100848.88;1663867;86;20422;-72
2022/05/08 08:30:49;;;;;;;;;;;;;;;23.10;28.75;100850.58;1663954;86;20137;-71
2022/05/08 08:33:15;;;;;;;;;;;;;;;23.30;29.70;100851.64;1663894;86;20130;-71
2022/05/08 08:35:43;;;;;;;;;;;;;;;23.58;29.07;100844.63;1662231;85;20146;-71
2022/05/08 08:38:10;;;;;;;;;;;;;;;23.50;27.40;100842.52;1662669;86;20165;-71
2022/05/08 08:40:39;;;;;;;;;;;;;;;23.23;26.77;100846.25;1662327;86;20141;-71
2022/05/08 08:48:32;;;;;;;;;;;;;;;22.30;28.03;100840.55;1615563;88;20163;-70
2022/05/08 08:51:00;;;;;;;;;;;;;;;22.51;29.31;100840.63;1613770;89;20181;-71
2022/05/08 08:53:28;;;;;;;;;;;;;;;22.92;29.78;100844.55;1613704;88;20165;-71
2022/05/08 08:55:55;;;;;;;;;;;;;;;23.30;29.86;100835.09;1613943;89;20197;-69
2022/05/08 08:58:21;;;;;;;;;;;;;;;23.72;29.56;100842.49;1614003;89;20146;-71
2022/05/08 09:00:49;;;;;;;;;;;;;;;24.01;28.46;100835.19;1613721;89;20185;-71
2022/05/08 09:03:25;;;;;;;;;;;;;;;24.04;28.40;100834.72;1613801;89;20150;-70
2022/05/08 09:05:56;;;;;;;;;;;;;;;24.16;28.44;100834.16;1613943;89;20134;-71
2022/05/08 09:08:29;;;;;;;;;;;;;;;24.40;28.04;100830.83;1613966;89;20134;-71
2022/05/08 09:10:58;;;;;;;;;;;;;;;24.30;26.87;100823.70;1521217;94;20232;-70
2022/05/08 09:13:26;;;;;;;;;;;;;;;24.21;27.62;100819.08;1521112;94;20177;-70
2022/05/08 09:16:04;;;;;;;;;;;;;;;24.42;28.28;100814.83;1518291;94;20152;-71
2022/05/08 09:18:47;;;;;;;;;;;;;;;24.58;27.46;100811.05;1518817;94;20183;-70
2022/05/08 09:24:11;;;;;;;;;;;;;;;24.77;27.19;100800.61;1521291;94;20126;-71
2022/05/08 09:26:40;;;;;;;;;;;;;;;25.01;27.06;100800.80;1521509;94;20117;-70
2022/05/08 09:29:07;;;;;;;;;;;;;;;25.13;26.77;100802.13;1521454;94;20521;-71
2022/05/08 09:31:42;;;;;;;;;;;;;;;25.29;26.54;100801.88;1521227;94;20152;-72
2022/05/08 09:34:09;;;;;;;;;;;;;;;25.18;24.85;100802.22;1525013;93;20123;-72
2022/05/08 09:36:38;;;;;;;;;;;;;;;24.85;24.58;100798.84;1523159;93;22418;-71
2022/05/08 09:39:05;;;;;;;;;;;;;;;24.63;25.14;100803.69;1542962;93;20145;-71
2022/05/08 09:41:37;;;;;;;;;;;;;;;24.50;25.20;100803.92;1543287;91;20180;-71
2022/05/08 09:44:10;;;;;;;;;;;;;;;24.48;25.27;100803.34;1543166;93;20134;-70
2022/05/08 09:46:39;;;;;;;;;;;;;;;24.39;24.96;100803.43;1540372;93;20485;-70
2022/05/08 09:49:06;;;;;;;;;;;;;;;24.12;25.54;100800.38;1477339;97;20995;-72
2022/05/08 09:51:34;;;;;;;;;;;;;;;24.24;25.60;100795.12;1477136;97;20142;-72
2022/05/08 09:54:01;;;;;;;;;;;;;;;24.44;26.14;100800.78;1477446;97;20151;-71
2022/05/08 09:56:28;;;;;;;;;;;;;;;24.61;25.38;100792.56;1477369;94;20154;-72
2022/05/08 09:58:55;;;;;;;;;;;;;;;24.83;25.09;100788.58;1477234;96;20155;-71
2022/05/08 10:01:24;;;;;;;;;;;;;;;24.67;24.25;100790.21;1477174;97;20122;-71
2022/05/08 10:03:52;;;;;;;;;;;;;;;24.58;25.00;100792.52;1477537;97;20114;-69
2022/05/08 10:06:19;;;;;;;;;;;;;;;24.75;25.46;100791.73;1477131;97;20130;-70
2022/05/08 10:08:46;;;;;;;;;;;;;;;24.85;25.85;100789.72;1523307;94;20143;-71
2022/05/08 10:14:05;;;;;;;;;;;;;;;25.08;24.59;100784.05;1526933;94;20154;-71
2022/05/08 10:16:47;;;;;;;;;;;;;;;24.92;24.31;100777.95;1527019;94;20142;-71
2022/05/08 10:19:21;;;;;;;;;;;;;;;24.76;24.67;100776.28;1526928;94;20154;-71
2022/05/08 10:22:05;;;;;;;;;;;;;;;25.01;25.10;100775.07;1527014;94;20166;-71
2022/05/08 10:24:48;;;;;;;;;;;;;;;24.90;23.91;100766.30;1526834;94;20162;-71
2022/05/08 10:27:23;;;;;;;;;;;;;;;24.81;24.39;100768.63;1473196;98;20134;-69
2022/05/08 10:29:53;;;;;;;;;;;;;;;24.78;24.70;100760.27;1472885;98;20130;-71
2022/05/08 10:32:33;;;;;;;;;;;;;;;24.73;24.88;100753.81;1473143;98;20147;-71
2022/05/08 10:35:16;;;;;;;;;;;;;;;24.61;24.85;100757.48;1475902;97;20114;-72
2022/05/08 10:37:46;;;;;;;;;;;;;;;24.33;24.35;100760.17;1485598;95;20134;-71
2022/05/08 10:42:55;;;;;;;;;;;;;;;23.62;25.04;100760.25;1466850;98;20167;-71
2022/05/08 10:45:36;;;;;;;;;;;;;;;23.92;26.04;100755.17;1487649;93;20137;-71
2022/05/08 10:48:10;;;;;;;;;;;;;;;24.05;24.54;100749.39;1559771;92;20139;-70
2022/05/08 10:50:39;;;;;;;;;;;;;;;23.93;24.82;100756.86;1563866;92;20448;-71
2022/05/08 10:53:06;;;;;;;;;;;;;;;23.94;25.22;100751.62;1561633;92;20238;-71
2022/05/08 10:55:33;;;;;;;;;;;;;;;24.01;24.85;100751.80;1563969;92;20175;-70
2022/05/08 10:58:00;;;;;;;;;;;;;;;23.95;25.09;100744.47;1563822;92;20505;-72
2022/05/08 11:00:30;;;;;;;;;;;;;;;24.07;25.38;100747.22;1564063;92;20139;-71
2022/05/08 11:02:58;;;;;;;;;;;;;;;24.03;25.75;100742.73;1563821;92;20444;-71
2022/05/08 11:05:33;;;;;;;;;;;;;;;24.28;26.62;100736.61;1564013;92;20140;-70
2022/05/08 11:08:02;;;;;;;;;;;;;;;24.50;26.62;100736.20;1563819;92;20164;-72
2022/05/08 11:10:31;;;;;;;;;;;;;;;24.68;26.17;100731.59;1564014;92;20151;-70
2022/05/08 11:12:59;;;;;;;;;;;;;;;24.67;25.09;100734.08;1563898;92;20463;-74
2022/05/08 11:15:27;;;;;;;;;;;;;;;24.24;25.69;100727.94;1563943;92;20148;-71
2022/05/08 11:18:11;;;;;;;;;;;;;;;24.06;25.49;100722.91;1563781;92;20164;-72
2022/05/08 11:20:48;;;;;;;;;;;;;;;23.93;25.71;100723.72;1564929;89;20467;-70
2022/05/08 11:23:18;;;;;;;;;;;;;;;23.71;25.67;100727.09;1564388;92;20124;-71
2022/05/08 11:25:48;;;;;;;;;;;;;;;23.76;26.28;100719.44;1539727;93;20125;-71
2022/05/08 11:28:18;;;;;;;;;;;;;;;23.75;26.32;100717.23;1539487;92;20153;-70
2022/05/08 11:30:48;;;;;;;;;;;;;;;23.53;26.23;100716.16;1539705;93;20121;-71
2022/05/08 11:36:05;;;;;;;;;;;;;;;23.87;26.44;100711.18;1530316;92;20434;-69
2022/05/08 11:38:51;;;;;;;;;;;;;;;24.22;26.36;100699.20;1523714;94;20122;-69
2022/05/08 11:41:22;;;;;;;;;;;;;;;24.52;26.20;100690.34;1529970;94;20170;-68
2022/05/08 11:43:50;;;;;;;;;;;;;;;24.70;25.80;100687.94;1529970;94;20447;-71
2022/05/08 11:46:18;;;;;;;;;;;;;;;24.83;26.35;100689.84;1529898;93;20155;-71
2022/05/08 11:48:47;;;;;;;;;;;;;;;25.13;26.35;100687.85;1529866;94;20142;-71
2022/05/08 11:51:15;;;;;;;;;;;;;;;25.23;26.30;100679.69;1529733;94;20167;-71
2022/05/08 11:53:45;;;;;;;;;;;;;;;25.33;25.53;100674.34;1530011;94;20230;-71
2022/05/08 11:56:27;;;;;;;;;;;;;;;25.35;25.68;100679.62;1529783;93;20158;-71
2022/05/08 11:58:54;;;;;;;;;;;;;;;25.41;25.98;100667.56;1530017;94;20202;-70
2022/05/08 12:01:27;;;;;;;;;;;;;;;25.61;26.39;100662.84;1553555;92;20119;-70
2022/05/08 12:03:55;;;;;;;;;;;;;;;25.74;25.62;100664.39;1572170;91;20180;-70
2022/05/08 12:06:22;;;;;;;;;;;;;;;25.49;25.72;100662.12;1572599;91;20537;-72
2022/05/08 12:08:50;;;;;;;;;;;;;;;25.52;25.85;100661.62;1572238;91;20114;-70
2022/05/08 12:11:29;;;;;;;;;;;;;;;25.60;26.14;100657.56;1572373;91;20129;-69
2022/05/08 12:14:04;;;;;;;;;;;;;;;25.78;26.35;100658.62;1572358;91;20150;-69
2022/05/08 12:16:33;;;;;;;;;;;;;;;25.77;25.10;100659.73;1546978;93;20116;-71
2022/05/08 12:19:19;;;;;;;;;;;;;;;25.37;25.03;100659.45;1547236;93;20179;-72
2022/05/08 12:21:46;;;;;;;;;;;;;;;25.22;24.78;100648.97;1557563;89;20118;-71
2022/05/08 12:24:14;;;;;;;;;;;;;;;24.99;26.33;100645.85;1609294;89;20123;-71
2022/05/08 12:26:42;;;;;;;;;;;;;;;25.16;26.31;100638.38;1609364;89;20147;-72
2022/05/08 12:29:18;;;;;;;;;;;;;;;25.17;25.08;100640.59;1609323;89;20166;-73
2022/05/08 12:31:45;;;;;;;;;;;;;;;25.04;25.37;100637.64;1561720;91;20151;-73
2022/05/08 12:34:13;;;;;;;;;;;;;;;24.99;26.05;100629.25;1560328;92;20140;-71
2022/05/08 12:36:40;;;;;;;;;;;;;;;25.18;26.38;100641.72;1557202;90;20125;-72
2022/05/08 12:39:08;;;;;;;;;;;;;;;25.37;26.36;100631.77;1556532;92;20148;-70
2022/05/08 12:41:37;;;;;;;;;;;;;;;25.32;25.16;100625.63;1556362;92;20177;-72
2022/05/08 12:44:04;;;;;;;;;;;;;;;25.03;25.74;100629.59;1556516;92;20109;-71
2022/05/08 12:46:32;;;;;;;;;;;;;;;24.98;25.75;100624.28;1558171;91;20117;-70
2022/05/08 12:49:05;;;;;;;;;;;;;;;25.04;26.70;100628.48;1576254;91;20474;-71
2022/05/08 12:51:34;;;;;;;;;;;;;;;25.11;25.87;100627.78;1576083;91;20133;-71
2022/05/08 12:54:02;;;;;;;;;;;;;;;25.03;25.60;100624.05;1576187;91;20162;-70
2022/05/08 12:56:30;;;;;;;;;;;;;;;24.96;25.76;100625.05;1576312;91;20145;-71
2022/05/08 13:01:43;;;;;;;;;;;;;;;24.92;25.95;100616.97;1553619;91;20111;-70
2022/05/08 13:04:10;;;;;;;;;;;;;;;24.93;25.71;100609.50;1552927;92;20111;-72
2022/05/08 13:06:37;;;;;;;;;;;;;;;24.82;25.38;100615.42;1552865;92;20123;-71
2022/05/08 13:09:06;;;;;;;;;;;;;;;24.64;25.69;100610.98;1553160;92;20123;-71
2022/05/08 13:11:35;;;;;;;;;;;;;;;24.59;25.15;100616.42;1552892;92;20123;-72
2022/05/08 13:14:02;;;;;;;;;;;;;;;24.24;25.40;100607.75;1598525;89;20115;-70
2022/05/08 13:16:31;;;;;;;;;;;;;;;24.21;25.50;100607.72;1604631;89;20135;-70
2022/05/08 13:19:00;;;;;;;;;;;;;;;24.13;25.75;100603.96;1604667;89;20470;-71
2022/05/08 13:21:28;;;;;;;;;;;;;;;24.09;26.05;100601.95;1584213;89;20415;-72